sensor_id;sensor_type;location;lat;lon;timestamp;temperature;humidity
57833;DHT22;43667;53.036;6.740;2023-05-08T00:01:17;12.30;99.90
57833;DHT22;43667;53.036;6.740;2023-05-08T00:03:43;12.00;99.90
57833;DHT22;43667;53.036;6.740;2023-05-08T00:06:09;12.00;99.90
57833;DHT22;43667;53.036;6.740;2023-05-08T00:08:34;12.20;99.90
57833;DHT22;43667;53.036;6.740;2023-05-08T00:11:00;12.00;99.90
57833;DHT22;43667;53.036;6.740;2023-05-08T00:13:26;12.10;99.90
57833;DHT22;43667;53.036;6.740;2023-05-08T00:15:51;12.00;99.90
57833;DHT22;43667;53.036;6.740;2023-05-08T00:18:17;12.00;99.90
57833;DHT22;43667;53.036;6.740;2023-05-08T00:20:42;11.90;99.90
57833;DHT22;43667;53.036;6.740;2023-05-08T00:23:08;11.80;99.90
57833;DHT22;43667;53.036;6.740;2023-05-08T00:25:33;11.70;99.90
57833;DHT22;43667;53.036;6.740;2023-05-08T00:27:59;11.80;99.90
57833;DHT22;43667;53.036;6.740;2023-05-08T00:30:25;12.00;99.90
57833;DHT22;43667;53.036;6.740;2023-05-08T00:32:51;11.80;99.90
57833;DHT22;43667;53.036;6.740;2023-05-08T00:35:17;11.80;99.90
57833;DHT22;43667;53.036;6.740;2023-05-08T00:37:43;11.80;99.90
57833;DHT22;43667;53.036;6.740;2023-05-08T00:40:09;11.60;99.90
57833;DHT22;43667;53.036;6.740;2023-05-08T00:42:35;11.60;99.90
57833;DHT22;43667;53.036;6.740;2023-05-08T00:45:02;11.70;99.90
57833;DHT22;43667;53.036;6.740;2023-05-08T00:47:28;11.60;99.90
57833;DHT22;43667;53.036;6.740;2023-05-08T00:49:55;11.50;99.90
57833;DHT22;43667;53.036;6.740;2023-05-08T00:52:20;11.50;99.90
57833;DHT22;43667;53.036;6.740;2023-05-08T00:54:46;11.50;99.90
57833;DHT22;43667;53.036;6.740;2023-05-08T00:57:13;11.50;99.90
57833;DHT22;43667;53.036;6.740;2023-05-08T00:59:40;11.40;99.90
57833;DHT22;43667;53.036;6.740;2023-05-08T01:02:06;11.20;99.90
57833;DHT22;43667;53.036;6.740;2023-05-08T01:04:34;11.20;99.90
57833;DHT22;43667;53.036;6.740;2023-05-08T01:07:00;11.30;99.90
57833;DHT22;43667;53.036;6.740;2023-05-08T01:09:26;11.30;99.90
57833;DHT22;43667;53.036;6.740;2023-05-08T01:17:32;11.00;99.90
57833;DHT22;43667;53.036;6.740;2023-05-08T01:20:31;10.90;99.90
57833;DHT22;43667;53.036;6.740;2023-05-08T01:23:36;10.90;99.90
57833;DHT22;43667;53.036;6.740;2023-05-08T01:26:19;10.90;99.90
57833;DHT22;43667;53.036;6.740;2023-05-08T01:36:55;10.40;99.90
57833;DHT22;43667;53.036;6.740;2023-05-08T01:39:28;10.50;99.90
57833;DHT22;43667;53.036;6.740;2023-05-08T01:42:11;10.50;99.90
57833;DHT22;43667;53.036;6.740;2023-05-08T01:44:46;10.40;99.90
57833;DHT22;43667;53.036;6.740;2023-05-08T01:47:14;10.40;99.90
57833;DHT22;43667;53.036;6.740;2023-05-08T01:49:44;10.40;99.90
57833;DHT22;43667;53.036;6.740;2023-05-08T01:52:33;10.40;99.90
57833;DHT22;43667;53.036;6.740;2023-05-08T01:55:09;10.50;99.90
57833;DHT22;43667;53.036;6.740;2023-05-08T01:57:40;10.40;99.90
57833;DHT22;43667;53.036;6.740;2023-05-08T02:00:08;10.30;99.90
57833;DHT22;43667;53.036;6.740;2023-05-08T02:05:03;10.60;99.90
57833;DHT22;43667;53.036;6.740;2023-05-08T02:07:30;10.30;99.90
57833;DHT22;43667;53.036;6.740;2023-05-08T02:10:01;10.40;99.90
57833;DHT22;43667;53.036;6.740;2023-05-08T02:12:28;10.40;99.90
57833;DHT22;43667;53.036;6.740;2023-05-08T02:14:55;10.20;99.90
57833;DHT22;43667;53.036;6.740;2023-05-08T02:17:21;10.50;99.90
57833;DHT22;43667;53.036;6.740;2023-05-08T02:19:48;10.40;99.90
57833;DHT22;43667;53.036;6.740;2023-05-08T02:22:16;10.20;99.90
57833;DHT22;43667;53.036;6.740;2023-05-08T02:24:42;10.20;99.90
57833;DHT22;43667;53.036;6.740;2023-05-08T02:34:33;10.00;99.90
57833;DHT22;43667;53.036;6.740;2023-05-08T02:37:02;10.10;99.90
57833;DHT22;43667;53.036;6.740;2023-05-08T02:39:29;9.90;99.90
57833;DHT22;43667;53.036;6.740;2023-05-08T02:41:55;10.00;99.90
57833;DHT22;43667;53.036;6.740;2023-05-08T02:44:21;10.00;99.90
57833;DHT22;43667;53.036;6.740;2023-05-08T02:52:07;9.90;99.90
57833;DHT22;43667;53.036;6.740;2023-05-08T02:54:45;9.90;99.90
57833;DHT22;43667;53.036;6.740;2023-05-08T02:57:35;9.90;99.90
57833;DHT22;43667;53.036;6.740;2023-05-08T03:02:43;9.90;99.90
57833;DHT22;43667;53.036;6.740;2023-05-08T03:05:18;9.90;99.90
57833;DHT22;43667;53.036;6.740;2023-05-08T03:07:48;9.90;99.90
57833;DHT22;43667;53.036;6.740;2023-05-08T03:15:33;9.70;99.90
57833;DHT22;43667;53.036;6.740;2023-05-08T03:18:08;9.70;99.90
57833;DHT22;43667;53.036;6.740;2023-05-08T03:20:39;9.70;99.90
57833;DHT22;43667;53.036;6.740;2023-05-08T03:23:08;9.70;99.90
57833;DHT22;43667;53.036;6.740;2023-05-08T03:25:36;9.70;99.90
57833;DHT22;43667;53.036;6.740;2023-05-08T03:28:05;9.70;99.90
57833;DHT22;43667;53.036;6.740;2023-05-08T03:30:35;9.60;99.90
57833;DHT22;43667;53.036;6.740;2023-05-08T03:33:03;9.60;99.90
57833;DHT22;43667;53.036;6.740;2023-05-08T03:35:30;9.60;99.90
57833;DHT22;43667;53.036;6.740;2023-05-08T03:37:57;9.60;99.90
57833;DHT22;43667;53.036;6.740;2023-05-08T03:40:22;9.60;99.90
57833;DHT22;43667;53.036;6.740;2023-05-08T03:42:49;9.80;99.90
57833;DHT22;43667;53.036;6.740;2023-05-08T03:45:15;9.60;99.90
57833;DHT22;43667;53.036;6.740;2023-05-08T03:47:42;9.60;99.90
57833;DHT22;43667;53.036;6.740;2023-05-08T03:50:08;9.60;99.90
57833;DHT22;43667;53.036;6.740;2023-05-08T03:52:34;9.70;99.90
57833;DHT22;43667;53.036;6.740;2023-05-08T03:55:00;9.60;99.90
57833;DHT22;43667;53.036;6.740;2023-05-08T03:57:34;9.60;99.90
57833;DHT22;43667;53.036;6.740;2023-05-08T04:00:13;9.60;99.90
57833;DHT22;43667;53.036;6.740;2023-05-08T04:02:46;9.60;99.90
57833;DHT22;43667;53.036;6.740;2023-05-08T04:05:27;9.60;99.90
57833;DHT22;43667;53.036;6.740;2023-05-08T04:08:02;9.40;99.90
57833;DHT22;43667;53.036;6.740;2023-05-08T04:10:38;9.40;99.90
57833;DHT22;43667;53.036;6.740;2023-05-08T04:13:20;9.40;99.90
57833;DHT22;43667;53.036;6.740;2023-05-08T04:15:50;9.40;99.90
57833;DHT22;43667;53.036;6.740;2023-05-08T04:18:20;9.40;99.90
57833;DHT22;43667;53.036;6.740;2023-05-08T04:20:47;9.40;99.90
57833;DHT22;43667;53.036;6.740;2023-05-08T04:23:16;9.40;99.90
57833;DHT22;43667;53.036;6.740;2023-05-08T04:25:43;9.40;99.90
57833;DHT22;43667;53.036;6.740;2023-05-08T04:28:10;9.40;99.90
57833;DHT22;43667;53.036;6.740;2023-05-08T04:30:36;9.30;99.90
57833;DHT22;43667;53.036;6.740;2023-05-08T04:33:02;9.30;99.90
57833;DHT22;43667;53.036;6.740;2023-05-08T04:35:28;9.30;99.90
57833;DHT22;43667;53.036;6.740;2023-05-08T04:37:54;9.30;99.90
57833;DHT22;43667;53.036;6.740;2023-05-08T04:40:20;9.30;99.90
57833;DHT22;43667;53.036;6.740;2023-05-08T04:42:46;9.40;99.90
57833;DHT22;43667;53.036;6.740;2023-05-08T04:45:12;9.30;99.90
57833;DHT22;43667;53.036;6.740;2023-05-08T04:47:37;9.40;99.90
57833;DHT22;43667;53.036;6.740;2023-05-08T04:50:03;9.40;99.90
57833;DHT22;43667;53.036;6.740;2023-05-08T04:52:29;9.40;99.90
57833;DHT22;43667;53.036;6.740;2023-05-08T04:54:55;9.40;99.90
57833;DHT22;43667;53.036;6.740;2023-05-08T04:57:20;9.50;99.90
57833;DHT22;43667;53.036;6.740;2023-05-08T04:59:46;9.50;99.90
57833;DHT22;43667;53.036;6.740;2023-05-08T05:02:11;9.60;99.90
57833;DHT22;43667;53.036;6.740;2023-05-08T05:04:39;9.60;99.90
57833;DHT22;43667;53.036;6.740;2023-05-08T05:07:04;9.70;99.90
57833;DHT22;43667;53.036;6.740;2023-05-08T05:09:30;9.70;99.90
57833;DHT22;43667;53.036;6.740;2023-05-08T05:11:55;9.80;99.90
57833;DHT22;43667;53.036;6.740;2023-05-08T05:14:21;9.80;99.90
57833;DHT22;43667;53.036;6.740;2023-05-08T05:16:47;9.90;99.90
57833;DHT22;43667;53.036;6.740;2023-05-08T05:19:13;9.90;99.90
57833;DHT22;43667;53.036;6.740;2023-05-08T05:21:38;10.00;99.90
57833;DHT22;43667;53.036;6.740;2023-05-08T05:24:05;10.10;99.90
57833;DHT22;43667;53.036;6.740;2023-05-08T05:26:30;10.10;99.90
57833;DHT22;43667;53.036;6.740;2023-05-08T05:28:56;10.20;99.90
57833;DHT22;43667;53.036;6.740;2023-05-08T05:31:22;10.30;99.90
57833;DHT22;43667;53.036;6.740;2023-05-08T05:33:48;10.40;99.90
57833;DHT22;43667;53.036;6.740;2023-05-08T05:36:13;10.40;99.90
57833;DHT22;43667;53.036;6.740;2023-05-08T05:38:39;10.50;99.90
57833;DHT22;43667;53.036;6.740;2023-05-08T05:41:05;10.60;99.90
57833;DHT22;43667;53.036;6.740;2023-05-08T05:43:31;10.70;99.90
57833;DHT22;43667;53.036;6.740;2023-05-08T05:46:03;10.80;99.90
57833;DHT22;43667;53.036;6.740;2023-05-08T05:48:29;10.90;99.90
57833;DHT22;43667;53.036;6.740;2023-05-08T05:50:55;11.00;99.90
57833;DHT22;43667;53.036;6.740;2023-05-08T05:53:20;11.10;99.90
57833;DHT22;43667;53.036;6.740;2023-05-08T05:55:46;11.20;99.90
57833;DHT22;43667;53.036;6.740;2023-05-08T05:58:11;11.30;99.90
57833;DHT22;43667;53.036;6.740;2023-05-08T06:00:37;11.40;99.90
57833;DHT22;43667;53.036;6.740;2023-05-08T06:03:03;11.50;99.90
57833;DHT22;43667;53.036;6.740;2023-05-08T06:05:28;11.50;99.90
57833;DHT22;43667;53.036;6.740;2023-05-08T06:07:54;11.60;99.90
57833;DHT22;43667;53.036;6.740;2023-05-08T06:10:20;11.80;99.90
57833;DHT22;43667;53.036;6.740;2023-05-08T06:12:45;11.90;99.90
57833;DHT22;43667;53.036;6.740;2023-05-08T06:15:11;12.00;99.90
57833;DHT22;43667;53.036;6.740;2023-05-08T06:17:39;12.00;99.90
57833;DHT22;43667;53.036;6.740;2023-05-08T06:20:05;12.10;99.90
57833;DHT22;43667;53.036;6.740;2023-05-08T06:22:31;12.20;99.90
57833;DHT22;43667;53.036;6.740;2023-05-08T06:24:56;12.20;99.90
57833;DHT22;43667;53.036;6.740;2023-05-08T06:27:23;12.20;99.90
57833;DHT22;43667;53.036;6.740;2023-05-08T06:29:49;12.20;99.90
57833;DHT22;43667;53.036;6.740;2023-05-08T06:32:18;12.20;99.90
57833;DHT22;43667;53.036;6.740;2023-05-08T06:34:44;12.20;99.90
57833;DHT22;43667;53.036;6.740;2023-05-08T06:37:10;12.30;99.90
57833;DHT22;43667;53.036;6.740;2023-05-08T06:39:36;12.20;99.90
57833;DHT22;43667;53.036;6.740;2023-05-08T06:42:02;12.20;99.90
57833;DHT22;43667;53.036;6.740;2023-05-08T06:44:31;12.10;99.90
57833;DHT22;43667;53.036;6.740;2023-05-08T06:46:56;12.00;99.90
57833;DHT22;43667;53.036;6.740;2023-05-08T06:49:22;12.00;99.90
57833;DHT22;43667;53.036;6.740;2023-05-08T06:51:48;12.00;99.90
57833;DHT22;43667;53.036;6.740;2023-05-08T06:54:13;12.00;99.90
57833;DHT22;43667;53.036;6.740;2023-05-08T06:56:39;12.00;99.90
57833;DHT22;43667;53.036;6.740;2023-05-08T06:59:05;12.10;99.90
57833;DHT22;43667;53.036;6.740;2023-05-08T07:01:30;12.20;99.90
57833;DHT22;43667;53.036;6.740;2023-05-08T07:03:56;12.30;99.90
57833;DHT22;43667;53.036;6.740;2023-05-08T07:06:22;12.40;99.90
57833;DHT22;43667;53.036;6.740;2023-05-08T07:08:47;12.40;99.90
57833;DHT22;43667;53.036;6.740;2023-05-08T07:11:13;12.50;99.90
57833;DHT22;43667;53.036;6.740;2023-05-08T07:13:39;12.50;99.90
57833;DHT22;43667;53.036;6.740;2023-05-08T07:16:09;12.60;99.90
57833;DHT22;43667;53.036;6.740;2023-05-08T07:18:35;12.70;99.90
57833;DHT22;43667;53.036;6.740;2023-05-08T07:21:01;12.70;99.90
57833;DHT22;43667;53.036;6.740;2023-05-08T07:23:26;12.90;99.90
57833;DHT22;43667;53.036;6.740;2023-05-08T07:25:52;13.00;99.90
57833;DHT22;43667;53.036;6.740;2023-05-08T07:28:19;13.10;99.90
57833;DHT22;43667;53.036;6.740;2023-05-08T07:30:45;13.30;99.90
57833;DHT22;43667;53.036;6.740;2023-05-08T07:33:10;13.50;99.90
57833;DHT22;43667;53.036;6.740;2023-05-08T07:35:40;13.60;99.90
57833;DHT22;43667;53.036;6.740;2023-05-08T07:38:06;13.60;99.90
57833;DHT22;43667;53.036;6.740;2023-05-08T07:40:32;13.70;99.90
57833;DHT22;43667;53.036;6.740;2023-05-08T07:42:57;13.70;99.90
57833;DHT22;43667;53.036;6.740;2023-05-08T07:45:23;13.90;99.90
57833;DHT22;43667;53.036;6.740;2023-05-08T07:47:54;13.90;99.90
57833;DHT22;43667;53.036;6.740;2023-05-08T07:50:20;14.00;99.90
57833;DHT22;43667;53.036;6.740;2023-05-08T07:52:47;14.10;99.90
57833;DHT22;43667;53.036;6.740;2023-05-08T07:55:12;14.20;99.90
57833;DHT22;43667;53.036;6.740;2023-05-08T07:57:42;14.30;99.90
57833;DHT22;43667;53.036;6.740;2023-05-08T08:00:12;14.40;99.90
57833;DHT22;43667;53.036;6.740;2023-05-08T08:02:38;14.50;99.90
57833;DHT22;43667;53.036;6.740;2023-05-08T08:05:05;14.50;99.90
57833;DHT22;43667;53.036;6.740;2023-05-08T08:07:31;14.70;99.90
57833;DHT22;43667;53.036;6.740;2023-05-08T08:10:00;14.90;99.90
57833;DHT22;43667;53.036;6.740;2023-05-08T08:12:26;15.00;99.90
57833;DHT22;43667;53.036;6.740;2023-05-08T08:14:53;15.20;99.90
57833;DHT22;43667;53.036;6.740;2023-05-08T08:17:18;15.30;99.90
57833;DHT22;43667;53.036;6.740;2023-05-08T08:19:44;15.50;99.90
57833;DHT22;43667;53.036;6.740;2023-05-08T08:22:10;15.70;99.90
57833;DHT22;43667;53.036;6.740;2023-05-08T08:24:35;15.80;99.90
57833;DHT22;43667;53.036;6.740;2023-05-08T08:27:01;15.90;99.90
57833;DHT22;43667;53.036;6.740;2023-05-08T08:29:27;16.00;99.90
57833;DHT22;43667;53.036;6.740;2023-05-08T08:31:53;16.30;99.90
57833;DHT22;43667;53.036;6.740;2023-05-08T08:34:19;16.60;99.90
57833;DHT22;43667;53.036;6.740;2023-05-08T08:36:44;16.90;99.90
57833;DHT22;43667;53.036;6.740;2023-05-08T08:39:10;17.30;99.90
57833;DHT22;43667;53.036;6.740;2023-05-08T08:41:37;17.60;99.90
57833;DHT22;43667;53.036;6.740;2023-05-08T08:44:04;18.00;99.90
57833;DHT22;43667;53.036;6.740;2023-05-08T08:46:30;18.20;99.90
57833;DHT22;43667;53.036;6.740;2023-05-08T08:48:58;18.40;99.90
57833;DHT22;43667;53.036;6.740;2023-05-08T08:51:35;18.50;99.90
57833;DHT22;43667;53.036;6.740;2023-05-08T08:54:10;18.60;99.90
57833;DHT22;43667;53.036;6.740;2023-05-08T08:56:40;18.90;99.90
57833;DHT22;43667;53.036;6.740;2023-05-08T08:59:10;19.20;99.90
57833;DHT22;43667;53.036;6.740;2023-05-08T09:01:38;19.20;99.90
57833;DHT22;43667;53.036;6.740;2023-05-08T09:04:04;19.20;99.90
57833;DHT22;43667;53.036;6.740;2023-05-08T09:06:34;19.30;99.90
57833;DHT22;43667;53.036;6.740;2023-05-08T09:09:01;19.30;99.90
57833;DHT22;43667;53.036;6.740;2023-05-08T09:11:27;19.20;99.90
57833;DHT22;43667;53.036;6.740;2023-05-08T09:13:56;19.30;99.90
57833;DHT22;43667;53.036;6.740;2023-05-08T09:16:23;19.20;99.90
57833;DHT22;43667;53.036;6.740;2023-05-08T09:18:49;19.30;99.90
57833;DHT22;43667;53.036;6.740;2023-05-08T09:21:14;19.30;99.90
57833;DHT22;43667;53.036;6.740;2023-05-08T09:24:02;19.40;99.90
57833;DHT22;43667;53.036;6.740;2023-05-08T09:26:35;19.50;99.90
57833;DHT22;43667;53.036;6.740;2023-05-08T09:29:14;19.60;99.90
57833;DHT22;43667;53.036;6.740;2023-05-08T09:31:45;19.80;99.90
57833;DHT22;43667;53.036;6.740;2023-05-08T09:34:28;20.00;99.90
57833;DHT22;43667;53.036;6.740;2023-05-08T09:36:55;20.10;99.90
57833;DHT22;43667;53.036;6.740;2023-05-08T09:39:34;20.10;99.90
57833;DHT22;43667;53.036;6.740;2023-05-08T09:42:04;20.30;99.90
57833;DHT22;43667;53.036;6.740;2023-05-08T09:44:52;20.50;99.50
57833;DHT22;43667;53.036;6.740;2023-05-08T09:47:20;20.50;96.00
57833;DHT22;43667;53.036;6.740;2023-05-08T09:50:05;20.50;97.90
57833;DHT22;43667;53.036;6.740;2023-05-08T09:52:33;20.50;93.90
57833;DHT22;43667;53.036;6.740;2023-05-08T09:55:09;20.50;98.30
57833;DHT22;43667;53.036;6.740;2023-05-08T09:57:51;20.50;99.00
57833;DHT22;43667;53.036;6.740;2023-05-08T10:00:17;20.60;98.30
57833;DHT22;43667;53.036;6.740;2023-05-08T10:03:01;20.80;97.70
57833;DHT22;43667;53.036;6.740;2023-05-08T10:05:28;20.90;95.20
57833;DHT22;43667;53.036;6.740;2023-05-08T10:08:37;21.10;96.10
57833;DHT22;43667;53.036;6.740;2023-05-08T10:10:44;21.10;95.20
57833;DHT22;43667;53.036;6.740;2023-05-08T10:13:10;21.30;94.30
57833;DHT22;43667;53.036;6.740;2023-05-08T10:15:37;21.30;96.10
57833;DHT22;43667;53.036;6.740;2023-05-08T10:18:06;21.40;94.40
57833;DHT22;43667;53.036;6.740;2023-05-08T10:20:34;21.60;94.60
57833;DHT22;43667;53.036;6.740;2023-05-08T10:23:00;21.70;93.70
57833;DHT22;43667;53.036;6.740;2023-05-08T10:25:31;21.90;93.00
57833;DHT22;43667;53.036;6.740;2023-05-08T10:30:51;21.80;93.00
57833;DHT22;43667;53.036;6.740;2023-05-08T10:33:24;22.00;90.90
57833;DHT22;43667;53.036;6.740;2023-05-08T10:35:53;22.00;91.40
57833;DHT22;43667;53.036;6.740;2023-05-08T10:38:19;22.00;90.30
57833;DHT22;43667;53.036;6.740;2023-05-08T10:40:45;22.10;91.10
57833;DHT22;43667;53.036;6.740;2023-05-08T10:43:12;22.10;91.10
57833;DHT22;43667;53.036;6.740;2023-05-08T10:45:39;22.30;91.70
57833;DHT22;43667;53.036;6.740;2023-05-08T10:48:34;22.50;90.40
57833;DHT22;43667;53.036;6.740;2023-05-08T10:51:20;22.60;90.40
57833;DHT22;43667;53.036;6.740;2023-05-08T10:56:36;22.80;82.50
57833;DHT22;43667;53.036;6.740;2023-05-08T10:59:02;22.80;88.70
57833;DHT22;43667;53.036;6.740;2023-05-08T11:01:28;23.00;86.20
57833;DHT22;43667;53.036;6.740;2023-05-08T11:03:54;23.10;83.90
57833;DHT22;43667;53.036;6.740;2023-05-08T11:06:45;23.20;85.00
57833;DHT22;43667;53.036;6.740;2023-05-08T11:09:25;23.30;78.60
57833;DHT22;43667;53.036;6.740;2023-05-08T11:14:36;23.20;80.20
57833;DHT22;43667;53.036;6.740;2023-05-08T11:17:03;23.30;77.10
57833;DHT22;43667;53.036;6.740;2023-05-08T11:19:29;23.20;79.00
57833;DHT22;43667;53.036;6.740;2023-05-08T11:22:15;23.30;81.10
57833;DHT22;43667;53.036;6.740;2023-05-08T11:24:54;23.40;75.20
57833;DHT22;43667;53.036;6.740;2023-05-08T11:35:52;23.80;71.40
57833;DHT22;43667;53.036;6.740;2023-05-08T11:38:24;24.00;71.20
57833;DHT22;43667;53.036;6.740;2023-05-08T11:40:54;24.00;70.60
57833;DHT22;43667;53.036;6.740;2023-05-08T11:46:05;24.00;67.50
57833;DHT22;43667;53.036;6.740;2023-05-08T11:48:34;23.90;66.90
57833;DHT22;43667;53.036;6.740;2023-05-08T11:51:00;23.90;69.50
57833;DHT22;43667;53.036;6.740;2023-05-08T11:53:27;24.10;67.90
57833;DHT22;43667;53.036;6.740;2023-05-08T11:55:53;24.20;73.20
57833;DHT22;43667;53.036;6.740;2023-05-08T11:58:18;24.40;67.20
57833;DHT22;43667;53.036;6.740;2023-05-08T12:00:45;24.50;66.00
57833;DHT22;43667;53.036;6.740;2023-05-08T12:03:19;24.50;64.00
57833;DHT22;43667;53.036;6.740;2023-05-08T12:05:46;24.60;64.80
57833;DHT22;43667;53.036;6.740;2023-05-08T12:08:13;24.50;65.60
57833;DHT22;43667;53.036;6.740;2023-05-08T12:13:17;24.60;64.50
57833;DHT22;43667;53.036;6.740;2023-05-08T12:15:58;24.80;67.50
57833;DHT22;43667;53.036;6.740;2023-05-08T12:18:25;25.10;65.20
57833;DHT22;43667;53.036;6.740;2023-05-08T12:20:52;25.30;64.00
57833;DHT22;43667;53.036;6.740;2023-05-08T12:23:18;25.20;62.70
57833;DHT22;43667;53.036;6.740;2023-05-08T12:25:44;25.10;62.20
57833;DHT22;43667;53.036;6.740;2023-05-08T12:28:10;25.30;65.00
57833;DHT22;43667;53.036;6.740;2023-05-08T12:30:36;25.60;62.60
57833;DHT22;43667;53.036;6.740;2023-05-08T12:33:05;25.80;61.10
57833;DHT22;43667;53.036;6.740;2023-05-08T12:35:31;25.80;60.00
57833;DHT22;43667;53.036;6.740;2023-05-08T12:38:01;25.90;59.80
57833;DHT22;43667;53.036;6.740;2023-05-08T12:40:33;26.00;58.70
57833;DHT22;43667;53.036;6.740;2023-05-08T12:43:00;26.20;60.40
57833;DHT22;43667;53.036;6.740;2023-05-08T12:45:29;26.40;58.90
57833;DHT22;43667;53.036;6.740;2023-05-08T12:48:01;26.50;57.70
57833;DHT22;43667;53.036;6.740;2023-05-08T12:50:26;26.60;57.20
57833;DHT22;43667;53.036;6.740;2023-05-08T12:53:04;26.70;56.70
57833;DHT22;43667;53.036;6.740;2023-05-08T12:55:31;26.70;53.90
57833;DHT22;43667;53.036;6.740;2023-05-08T12:58:02;26.50;54.00
57833;DHT22;43667;53.036;6.740;2023-05-08T13:00:45;26.60;55.10
57833;DHT22;43667;53.036;6.740;2023-05-08T13:03:20;26.60;54.90
57833;DHT22;43667;53.036;6.740;2023-05-08T13:05:47;26.40;55.40
57833;DHT22;43667;53.036;6.740;2023-05-08T13:08:13;26.20;57.20
57833;DHT22;43667;53.036;6.740;2023-05-08T13:10:42;26.10;59.50
57833;DHT22;43667;53.036;6.740;2023-05-08T13:13:09;25.90;58.50
57833;DHT22;43667;53.036;6.740;2023-05-08T13:15:35;25.70;59.40
57833;DHT22;43667;53.036;6.740;2023-05-08T13:18:01;25.40;59.50
57833;DHT22;43667;53.036;6.740;2023-05-08T13:20:26;25.20;60.10
57833;DHT22;43667;53.036;6.740;2023-05-08T13:22:52;25.10;61.70
57833;DHT22;43667;53.036;6.740;2023-05-08T13:25:18;25.10;62.90
57833;DHT22;43667;53.036;6.740;2023-05-08T13:27:44;25.30;64.50
57833;DHT22;43667;53.036;6.740;2023-05-08T13:30:11;25.50;61.20
57833;DHT22;43667;53.036;6.740;2023-05-08T13:32:37;25.60;60.50
57833;DHT22;43667;53.036;6.740;2023-05-08T13:35:03;25.70;59.40
57833;DHT22;43667;53.036;6.740;2023-05-08T13:37:32;25.80;59.50
57833;DHT22;43667;53.036;6.740;2023-05-08T13:39:57;25.90;60.20
57833;DHT22;43667;53.036;6.740;2023-05-08T13:42:23;25.90;57.90
57833;DHT22;43667;53.036;6.740;2023-05-08T13:44:49;26.00;57.80
57833;DHT22;43667;53.036;6.740;2023-05-08T13:47:14;26.00;59.10
57833;DHT22;43667;53.036;6.740;2023-05-08T13:49:40;25.80;61.20
57833;DHT22;43667;53.036;6.740;2023-05-08T13:52:05;25.60;62.30
57833;DHT22;43667;53.036;6.740;2023-05-08T13:54:31;25.50;63.80
57833;DHT22;43667;53.036;6.740;2023-05-08T13:56:57;25.50;63.30
57833;DHT22;43667;53.036;6.740;2023-05-08T13:59:22;25.50;61.00
57833;DHT22;43667;53.036;6.740;2023-05-08T14:01:48;25.40;63.00
57833;DHT22;43667;53.036;6.740;2023-05-08T14:04:13;25.40;62.20
57833;DHT22;43667;53.036;6.740;2023-05-08T14:06:39;25.40;64.60
57833;DHT22;43667;53.036;6.740;2023-05-08T14:09:04;25.50;62.70
57833;DHT22;43667;53.036;6.740;2023-05-08T14:11:30;25.60;63.00
57833;DHT22;43667;53.036;6.740;2023-05-08T14:13:55;25.60;60.70
57833;DHT22;43667;53.036;6.740;2023-05-08T14:16:21;25.50;61.30
57833;DHT22;43667;53.036;6.740;2023-05-08T14:18:47;25.40;63.00
57833;DHT22;43667;53.036;6.740;2023-05-08T14:21:13;25.40;62.70
57833;DHT22;43667;53.036;6.740;2023-05-08T14:23:38;25.50;61.20
57833;DHT22;43667;53.036;6.740;2023-05-08T14:26:04;25.70;60.30
57833;DHT22;43667;53.036;6.740;2023-05-08T14:28:30;25.70;58.50
57833;DHT22;43667;53.036;6.740;2023-05-08T14:30:55;25.70;59.70
57833;DHT22;43667;53.036;6.740;2023-05-08T14:33:21;25.60;62.60
57833;DHT22;43667;53.036;6.740;2023-05-08T14:35:47;25.40;63.80
57833;DHT22;43667;53.036;6.740;2023-05-08T14:38:13;25.40;60.50
57833;DHT22;43667;53.036;6.740;2023-05-08T14:40:39;25.40;59.80
57833;DHT22;43667;53.036;6.740;2023-05-08T14:43:05;25.40;60.10
57833;DHT22;43667;53.036;6.740;2023-05-08T14:45:30;25.60;59.60
57833;DHT22;43667;53.036;6.740;2023-05-08T14:47:56;26.00;59.50
57833;DHT22;43667;53.036;6.740;2023-05-08T14:50:22;26.20;59.40
57833;DHT22;43667;53.036;6.740;2023-05-08T14:52:52;26.30;58.80
57833;DHT22;43667;53.036;6.740;2023-05-08T14:55:18;26.10;58.40
57833;DHT22;43667;53.036;6.740;2023-05-08T14:57:48;25.90;58.60
57833;DHT22;43667;53.036;6.740;2023-05-08T15:00:15;25.50;59.10
57833;DHT22;43667;53.036;6.740;2023-05-08T15:02:41;25.30;62.90
57833;DHT22;43667;53.036;6.740;2023-05-08T15:05:07;25.00;65.40
57833;DHT22;43667;53.036;6.740;2023-05-08T15:07:34;24.80;67.50
57833;DHT22;43667;53.036;6.740;2023-05-08T15:10:00;24.60;69.60
57833;DHT22;43667;53.036;6.740;2023-05-08T15:12:25;24.40;70.10
57833;DHT22;43667;53.036;6.740;2023-05-08T15:14:51;24.20;73.00
57833;DHT22;43667;53.036;6.740;2023-05-08T15:17:17;24.00;79.60
57833;DHT22;43667;53.036;6.740;2023-05-08T15:19:42;23.80;83.90
57833;DHT22;43667;53.036;6.740;2023-05-08T15:22:10;23.60;87.50
57833;DHT22;43667;53.036;6.740;2023-05-08T15:24:36;23.30;90.30
57833;DHT22;43667;53.036;6.740;2023-05-08T15:27:01;23.10;92.00
57833;DHT22;43667;53.036;6.740;2023-05-08T15:29:27;22.90;93.00
57833;DHT22;43667;53.036;6.740;2023-05-08T15:31:53;22.50;92.40
57833;DHT22;43667;53.036;6.740;2023-05-08T15:34:18;22.30;91.60
57833;DHT22;43667;53.036;6.740;2023-05-08T15:36:44;22.10;92.80
57833;DHT22;43667;53.036;6.740;2023-05-08T15:39:10;21.90;97.10
57833;DHT22;43667;53.036;6.740;2023-05-08T15:41:35;21.60;99.40
57833;DHT22;43667;53.036;6.740;2023-05-08T15:44:02;21.50;99.90
57833;DHT22;43667;53.036;6.740;2023-05-08T15:46:27;21.50;99.90
57833;DHT22;43667;53.036;6.740;2023-05-08T15:48:53;21.40;99.90
57833;DHT22;43667;53.036;6.740;2023-05-08T15:51:18;21.30;99.90
57833;DHT22;43667;53.036;6.740;2023-05-08T15:53:44;21.30;99.90
57833;DHT22;43667;53.036;6.740;2023-05-08T15:56:10;21.30;99.90
57833;DHT22;43667;53.036;6.740;2023-05-08T15:58:35;21.20;99.90
57833;DHT22;43667;53.036;6.740;2023-05-08T16:01:03;21.20;99.90
57833;DHT22;43667;53.036;6.740;2023-05-08T16:03:30;21.20;99.90
57833;DHT22;43667;53.036;6.740;2023-05-08T16:05:55;21.10;99.90
57833;DHT22;43667;53.036;6.740;2023-05-08T16:08:22;21.10;99.90
57833;DHT22;43667;53.036;6.740;2023-05-08T16:10:47;21.00;99.90
57833;DHT22;43667;53.036;6.740;2023-05-08T16:13:13;21.00;99.90
57833;DHT22;43667;53.036;6.740;2023-05-08T16:15:39;20.90;99.90
57833;DHT22;43667;53.036;6.740;2023-05-08T16:18:05;20.90;99.90
57833;DHT22;43667;53.036;6.740;2023-05-08T16:20:31;20.90;99.90
57833;DHT22;43667;53.036;6.740;2023-05-08T16:22:57;20.80;99.90
57833;DHT22;43667;53.036;6.740;2023-05-08T16:25:23;20.80;99.90
57833;DHT22;43667;53.036;6.740;2023-05-08T16:27:49;20.70;99.90
57833;DHT22;43667;53.036;6.740;2023-05-08T16:30:15;20.60;99.90
57833;DHT22;43667;53.036;6.740;2023-05-08T16:32:40;20.50;99.90
57833;DHT22;43667;53.036;6.740;2023-05-08T16:35:07;20.50;99.90
57833;DHT22;43667;53.036;6.740;2023-05-08T16:37:32;20.40;99.90